South Mason Valley, Nevada Weather observations

Data are for 10 minute period ending at time listed.
 Day   Time   Solar   Ave.   Ave.  Ave.  Vector  Max.   Baro.   Total    
  of    of     Rad.   Air    Rel.  Wind   Wind   Wind  Press.  Precip.   
Year   Day            Temp.  Hum.  Speed  Dir.   Gust                    
2014   (PST)  Kw/m2    F      %     mph   deg.    mph    mb.     in.     
-------------------------------------------------------------------------
 105    4:50   0.00   41.6    53    0.6   147     1.8   879.4    0.00 
 105    5:00   0.00   41.9    50    1.6   215     2.5   879.4    0.00 
 105    5:10   0.00   41.7    48    1.5   238     2.4   879.5    0.00 
 105    5:20   0.00   42.7    45    2.4   266     5.4   879.5    0.00 
 105    5:30   0.01   40.9    52    3.7     8     5.0   879.6    0.00 
 105    5:40   0.02   39.4    53    1.5    39     3.9   879.7    0.00 
 105    5:50   0.03   39.5    56    1.3   241     3.7   879.7    0.00 
 105    6:00   0.07   39.1    61    3.2   170     6.1   879.5    0.00 
 105    6:10   0.11   40.7    51    4.2   113     5.8   879.5    0.00 
 105    6:20   0.15   43.6    45    2.4   122     5.6   879.7    0.00 
 105    6:30   0.18   46.3    49    1.1   176     2.0   879.8    0.00 
 105    6:40   0.21   48.6    44    2.0   160     3.6   879.8    0.00 
 105    6:50   0.25   49.4    44    2.5   145     3.6   879.8    0.00 
 105    7:00   0.29   51.1    43    2.8   139     3.6   879.8    0.00 
 105    7:10   0.32   53.1    36    3.0   132     4.1   879.8    0.00 
 105    7:20   0.36   54.9    36    1.8   133     3.7   879.5    0.00 
 105    7:30   0.39   58.0    31    1.3   113     2.8   879.5    0.00 
 105    7:40   0.42   58.0    30    3.5   114     5.8   879.3    0.00 
 105    7:50   0.46   58.1    32    3.6   145     5.1   879.2    0.00 
 105    8:00   0.49   59.3    29    2.9   123     4.7   879.1    0.00 
 105    8:10   0.53   61.2    28    2.9   142     5.0   879.0    0.00 
 105    8:20   0.56   61.4    28    4.2   135     6.1   878.8    0.00 
 105    8:30   0.59   62.9    28    2.8   168     5.6   878.8    0.00 
 105    8:40   0.62   64.6    27    1.7   196     3.7   878.9    0.00 
 105    8:50   0.65   67.6    24    0.8    96     3.0   878.9    0.00 
 105    9:00   0.68   67.4    23    3.3   200     7.9   878.8    0.00 
 105    9:10   0.71   66.7    21    1.8   308     6.9   878.8    0.00 
 105    9:20   0.74   67.9    21    2.9   208     6.4   878.8    0.00 
 105    9:30   0.74   67.2    19    3.6   267     6.9   878.9    0.00 
 105    9:40   0.77   67.8    22    2.6   257     7.1   878.8    0.00 
 105    9:50   0.81   68.0    20    3.3   320     8.6   878.8    0.00 
 105   10:00   0.83   69.1    20    2.7   270     6.5   878.9    0.00 
 105   10:10   0.84   69.9    16    2.1   116     6.1   878.8    0.00 
 105   10:20   0.86   70.2    16    3.1   150     7.6   878.7    0.00 
 105   10:30   0.85   69.8    19    5.1   264     8.7   878.7    0.00 
 105   10:40   0.88   69.8    16    4.6   269    11.8   878.6    0.00 
 105   10:50   0.90   69.7    19    6.7   298    11.2   878.5    0.00 
 105   11:00   0.90   69.5    19    7.0   329    12.3   878.4    0.00 
 105   11:10   0.92   69.5    18    5.8    10    10.2   878.2    0.00 
 105   11:20   0.92   70.8    15    2.9   195    10.9   878.1    0.00 
 105   11:30   0.94   71.2    16    4.4   336    11.4   878.0    0.00 
 105   11:40   0.96   71.4    16    5.2   315    14.0   877.9    0.00 
 105   11:50   1.00   72.0    18    6.3   309    11.7   877.7    0.00 
 105   12:00   0.97   72.6    17    7.9   282    21.9   877.5    0.00 
 105   12:10   1.03   72.9    16   10.0   256    16.8   877.3    0.00 
 105   12:20   0.78   72.2    16   12.2   294    21.0   877.3    0.00 
 105   12:30   0.92   72.4    16   10.4   277    16.5   877.2    0.00 
 105   12:40   0.91   72.8    16    9.4   288    15.9   877.1    0.00 
 105   12:50   1.15   73.5    17   10.6   299    17.8   877.0    0.00 
 105   13:00   0.94   73.6    16    9.6   300    19.1   876.8    0.00 
 105   13:10   0.70   72.4    16    8.5   298    17.8   876.9    0.00 
 105   13:20   0.77   73.0    15    6.9   280    13.9   876.8    0.00 
 105   13:30   0.70   72.3    18   11.3   321    18.3   876.7    0.00 
 105   13:40   0.59   71.0    20    8.2   335    15.4   876.7    0.00 
 105   13:50   0.86   72.3    21    9.1   318    15.9   876.6    0.00 
 105   14:00   0.80   72.8    17    7.8   299    17.6   876.5    0.00 
 105   14:10   0.83   72.7    20   10.6   331    18.3   876.4    0.00 
 105   14:20   0.70   72.2    20   11.1   347    18.6   876.2    0.00 
 105   14:30   0.58   71.9    20    9.2   330    15.0   876.1    0.00 
 105   14:40   0.61   72.1    20    8.5   327    14.3   876.0    0.00 
 105   14:50   0.53   71.4    21   10.1   340    17.8   876.0    0.00 
 105   15:00   0.49   71.4    21   12.1   318    20.8   875.9    0.00 
 105   15:10   0.57   71.3    22    9.9   335    17.0   875.9    0.00 
 105   15:20   0.52   71.2    22   12.5   325    19.2   875.9    0.00 
 105   15:30   0.69   72.1    22    9.9   326    16.3   875.8    0.00 
 105   15:40   0.57   72.1    21   10.2   316    19.1   875.8    0.00 
 105   15:50   0.57   72.3    21    9.4   322    17.5   875.7    0.00 
 105   16:00   0.44   71.4    21   13.7   334    23.0   875.7    0.00 
 105   16:10   0.42   70.8    23    8.2   332    14.1   875.6    0.00 
 105   16:20   0.37   71.0    22    9.8   335    18.6   875.5    0.00 
 105   16:30   0.40   70.8    22   11.3   335    19.7   875.5    0.00 
 105   16:40   0.28   70.1    21   11.2     1    17.9   875.4    0.00 
 105   16:50   0.27   69.6    21   11.5   355    16.8   875.4    0.00 
 105   17:00   0.24   70.0    21   10.3   344    15.0   875.3    0.00 
 105   17:10   0.21   69.3    22   10.4   338    16.0   875.3    0.00 
 105   17:20   0.16   69.1    21   10.4   350    16.4   875.2    0.00 
 105   17:30   0.11   68.4    21   11.0   349    16.7   875.1    0.00 
 105   17:40   0.07   67.9    21    9.8   355    16.7   875.1    0.00 
 105   17:50   0.07   67.8    21   10.0   354    14.7   875.2    0.00 
 105   18:00   0.07   67.2    22    8.9   358    13.4   875.2    0.00 
 105   18:10   0.06   67.1    22    8.6   350    12.7   875.2    0.00 
 105   18:20   0.03   66.5    23    9.2   348    13.5   875.2    0.00 
 105   18:30   0.01   65.4    24    6.6   357    10.8   875.1    0.00 
 105   18:40   0.01   63.6    25    5.7    23    11.6   875.0    0.00 
 105   18:50   0.00   62.9    26    6.5    21     9.3   875.0    0.00 
 105   19:00   0.00   62.0    27    5.7    22     9.3   875.0    0.00 
 105   19:10   0.00   60.7    28    5.6    13     8.8   875.1    0.00 
 105   19:20   0.00   60.3    29    6.4     6    10.0   875.2    0.00 
 105   19:30   0.00   60.3    27    7.0     3    11.0   875.3    0.00 
 105   19:40   0.00   60.3    27    7.3     6    10.5   875.4    0.00 
 105   19:50   0.00   60.1    26    6.2   359     9.3   875.6    0.00 
 105   20:00   0.00   59.5    25    5.1   357     8.9   875.8    0.00 
 105   20:10   0.00   59.4    24    4.8   356     8.0   875.9    0.00 
 105   20:20   0.00   58.4    25    4.4   351     7.1   876.0    0.00 
 105   20:30   0.00   57.2    27    4.2   339     5.8   876.0    0.00 
 105   20:40   0.00   56.3    28    4.8   348     6.4   876.0    0.00 
 105   20:50   0.00   56.4    28    5.1   341     7.8   876.1    0.00 
 105   21:00   0.00   56.4    27    6.5   340     8.9   876.2    0.00 
 105   21:10   0.00   56.3    27    6.0   333     8.8   876.2    0.00 
 105   21:20   0.00   54.9    30    6.0   328     7.6   876.2    0.00 
 105   21:30   0.00   54.6    29    6.8   326     8.5   876.2    0.00 
 105   21:40   0.00   54.3    29    5.5   357     8.5   876.3    0.00 
 105   21:50   0.00   54.6    27    5.8   356     9.6   876.3    0.00 
 105   22:00   0.00   54.8    26    6.6   359     9.6   876.3    0.00 
 105   22:10   0.00   54.0    27    5.8   360     8.0   876.3    0.00 
 105   22:20   0.00   53.4    28    5.8     3     8.7   876.3    0.00 
 105   22:30   0.00   52.8    29    6.2     4     9.2   876.4    0.00 
 105   22:40   0.00   51.9    30    4.8   350     7.5   876.3    0.00 
 105   22:50   0.00   51.8    28    4.6   355     6.9   876.3    0.00 
 105   23:00   0.00   51.0    30    3.8     3     6.8   876.4    0.00 
 105   23:10   0.00   50.4    30    3.4   345     5.2   876.6    0.00 
 105   23:20   0.00   50.0    31    4.9   328     5.7   876.8    0.00 
 105   23:30   0.00   49.1    33    4.9   338     6.6   876.9    0.00 
 105   23:40   0.00   49.9    29    4.1   350     7.1   877.0    0.00 
 105   23:50   0.00   49.6    29    4.5   347     6.1   877.0    0.00 
 106    0:00   0.00   48.4    32    5.5   341     6.9   877.0    0.00 
 106    0:10   0.00   49.0    29    4.6   351     7.0   877.0    0.00 
 106    0:20   0.00   49.1    28    4.7     2     6.6   877.0    0.00 
 106    0:30   0.00   47.7    30    4.7     5     6.6   877.0    0.00 
 106    0:40   0.00   47.6    30    5.3   357     9.1   877.0    0.00 
 106    0:50   0.00   48.8    29    6.9     2    11.5   877.1    0.00 
 106    1:00   0.00   49.7    28    6.4     4     9.2   877.1    0.00 
 106    1:10   0.00   48.8    29    4.6    16     7.3   876.9    0.00 
 106    1:20   0.00   47.2    33    3.7     8     5.3   876.8    0.00 
 106    1:30   0.00   46.0    34    2.9   343     4.2   876.8    0.00 
 106    1:40   0.00   47.3    30    3.3   310     4.5   876.9    0.00 
 106    1:50   0.00   45.5    34    2.7   288     3.9   877.0    0.00 
 106    2:00   0.00   44.1    36    2.0   300     2.4   877.0    0.00 
 106    2:10   0.00   44.6    33    2.9   272     3.7   877.2    0.00 
 106    2:20   0.00   44.8    35    1.4   264     2.3   877.3    0.00 
 106    2:30   0.00   42.8    40    0.9   253     1.8   877.4    0.00 
 106    2:40   0.00   41.9    40    3.4   260     4.6   877.5    0.00 
 106    2:50   0.00   43.1    38    2.4   261     3.9   877.5    0.00 
 106    3:00   0.00   39.7    49    1.2   228     2.6   877.6    0.00 
 106    3:10   0.00   40.5    50    1.5   226     2.6   877.3    0.00 
 106    3:20   0.00   38.7    55    3.2   201     4.7   877.2    0.00 
 106    3:30   0.00   38.6    56    3.4   277     4.8   877.3    0.00 
 106    3:40   0.00   39.0    52    4.8   290     5.4   877.4    0.00 
 106    3:50   0.00   39.7    49    3.9   292     5.4   877.4    0.00 
 106    4:00   0.00   38.1    55    1.3   207     2.3   877.4    0.00 
 106    4:10   0.00   37.5    56    0.9   119     3.5   877.3    0.00 
 106    4:20   0.00   38.9    53    0.3   122     3.1   877.4    0.00 
 106    4:30   0.00   37.6    59    2.5    88     4.0   877.5    0.00 
 106    4:40   0.00   37.8    58    2.1   116     3.9   877.5    0.00 

Return to south Mason Valley graphs page.


Western Regional Climate Center,wrcc@dri.edu